sensor_id;sensor_type;location;lat;lon;timestamp;temperature;humidity
44223;DHT22;29895;48.804;9.386;2023-04-25T00:01:31;9.40;99.90
44223;DHT22;29895;48.804;9.386;2023-04-25T00:03:58;9.50;99.90
44223;DHT22;29895;48.804;9.386;2023-04-25T00:06:24;9.50;99.90
44223;DHT22;29895;48.804;9.386;2023-04-25T00:08:52;9.60;99.90
44223;DHT22;29895;48.804;9.386;2023-04-25T00:11:17;9.40;99.90
44223;DHT22;29895;48.804;9.386;2023-04-25T00:13:43;9.40;99.90
44223;DHT22;29895;48.804;9.386;2023-04-25T00:16:08;9.40;99.90
44223;DHT22;29895;48.804;9.386;2023-04-25T00:18:34;9.40;99.90
44223;DHT22;29895;48.804;9.386;2023-04-25T00:21:00;9.40;99.90
44223;DHT22;29895;48.804;9.386;2023-04-25T00:23:25;9.40;99.90
44223;DHT22;29895;48.804;9.386;2023-04-25T00:25:51;9.40;99.90
44223;DHT22;29895;48.804;9.386;2023-04-25T00:28:17;9.30;99.90
44223;DHT22;29895;48.804;9.386;2023-04-25T00:30:42;9.30;99.90
44223;DHT22;29895;48.804;9.386;2023-04-25T00:33:08;9.30;99.90
44223;DHT22;29895;48.804;9.386;2023-04-25T00:35:34;9.20;99.90
44223;DHT22;29895;48.804;9.386;2023-04-25T00:37:59;9.20;99.90
44223;DHT22;29895;48.804;9.386;2023-04-25T00:40:25;9.20;99.90
44223;DHT22;29895;48.804;9.386;2023-04-25T00:42:51;9.20;99.90
44223;DHT22;29895;48.804;9.386;2023-04-25T00:45:17;9.10;99.90
44223;DHT22;29895;48.804;9.386;2023-04-25T00:47:43;9.10;99.90
44223;DHT22;29895;48.804;9.386;2023-04-25T00:50:09;9.00;99.90
44223;DHT22;29895;48.804;9.386;2023-04-25T00:52:35;9.00;99.90
44223;DHT22;29895;48.804;9.386;2023-04-25T00:55:01;9.00;99.90
44223;DHT22;29895;48.804;9.386;2023-04-25T00:57:27;9.00;99.90
44223;DHT22;29895;48.804;9.386;2023-04-25T00:59:53;9.00;99.90
44223;DHT22;29895;48.804;9.386;2023-04-25T01:02:19;9.00;99.90
44223;DHT22;29895;48.804;9.386;2023-04-25T01:04:45;9.00;99.90
44223;DHT22;29895;48.804;9.386;2023-04-25T01:07:11;8.90;99.90
44223;DHT22;29895;48.804;9.386;2023-04-25T01:09:36;8.90;99.90
44223;DHT22;29895;48.804;9.386;2023-04-25T01:12:02;8.90;99.90
44223;DHT22;29895;48.804;9.386;2023-04-25T01:14:28;8.90;99.90
44223;DHT22;29895;48.804;9.386;2023-04-25T01:16:54;8.90;99.90
44223;DHT22;29895;48.804;9.386;2023-04-25T01:19:19;9.00;99.90
44223;DHT22;29895;48.804;9.386;2023-04-25T01:21:45;9.00;99.90
44223;DHT22;29895;48.804;9.386;2023-04-25T01:24:11;9.00;99.90
44223;DHT22;29895;48.804;9.386;2023-04-25T01:26:37;9.00;99.90
44223;DHT22;29895;48.804;9.386;2023-04-25T01:29:07;9.00;99.90
44223;DHT22;29895;48.804;9.386;2023-04-25T01:31:32;9.00;99.90
44223;DHT22;29895;48.804;9.386;2023-04-25T01:34:00;9.00;99.90
44223;DHT22;29895;48.804;9.386;2023-04-25T01:36:25;9.00;99.90
44223;DHT22;29895;48.804;9.386;2023-04-25T01:38:52;9.00;99.90
44223;DHT22;29895;48.804;9.386;2023-04-25T01:41:18;9.00;99.90
44223;DHT22;29895;48.804;9.386;2023-04-25T01:43:44;9.00;99.90
44223;DHT22;29895;48.804;9.386;2023-04-25T01:46:10;9.00;99.90
44223;DHT22;29895;48.804;9.386;2023-04-25T01:48:36;9.00;99.90
44223;DHT22;29895;48.804;9.386;2023-04-25T01:51:01;9.00;99.90
44223;DHT22;29895;48.804;9.386;2023-04-25T01:53:27;9.00;99.90
44223;DHT22;29895;48.804;9.386;2023-04-25T01:55:52;8.90;99.90
44223;DHT22;29895;48.804;9.386;2023-04-25T01:58:18;8.90;99.90
44223;DHT22;29895;48.804;9.386;2023-04-25T02:00:43;8.80;99.90
44223;DHT22;29895;48.804;9.386;2023-04-25T02:03:09;8.80;99.90
44223;DHT22;29895;48.804;9.386;2023-04-25T02:05:35;8.70;99.90
44223;DHT22;29895;48.804;9.386;2023-04-25T02:08:02;8.70;99.90
44223;DHT22;29895;48.804;9.386;2023-04-25T02:10:27;8.70;99.90
44223;DHT22;29895;48.804;9.386;2023-04-25T02:12:53;8.60;99.90
44223;DHT22;29895;48.804;9.386;2023-04-25T02:15:18;8.60;99.90
44223;DHT22;29895;48.804;9.386;2023-04-25T02:17:44;8.60;99.90
44223;DHT22;29895;48.804;9.386;2023-04-25T02:20:10;8.60;99.90
44223;DHT22;29895;48.804;9.386;2023-04-25T02:22:36;8.60;99.90
44223;DHT22;29895;48.804;9.386;2023-04-25T02:25:02;8.60;99.90
44223;DHT22;29895;48.804;9.386;2023-04-25T02:27:30;8.60;99.90
44223;DHT22;29895;48.804;9.386;2023-04-25T02:29:55;8.60;99.90
44223;DHT22;29895;48.804;9.386;2023-04-25T02:32:21;8.50;99.90
44223;DHT22;29895;48.804;9.386;2023-04-25T02:34:46;8.50;99.90
44223;DHT22;29895;48.804;9.386;2023-04-25T02:37:13;8.50;99.90
44223;DHT22;29895;48.804;9.386;2023-04-25T02:39:38;8.60;99.90
44223;DHT22;29895;48.804;9.386;2023-04-25T02:42:04;8.60;99.90
44223;DHT22;29895;48.804;9.386;2023-04-25T02:44:29;8.60;99.90
44223;DHT22;29895;48.804;9.386;2023-04-25T02:46:55;8.60;99.90
44223;DHT22;29895;48.804;9.386;2023-04-25T02:49:20;8.60;99.90
44223;DHT22;29895;48.804;9.386;2023-04-25T02:51:46;8.60;99.90
44223;DHT22;29895;48.804;9.386;2023-04-25T02:54:11;8.50;99.90
44223;DHT22;29895;48.804;9.386;2023-04-25T02:56:37;8.50;99.90
44223;DHT22;29895;48.804;9.386;2023-04-25T02:59:02;8.40;99.90
44223;DHT22;29895;48.804;9.386;2023-04-25T03:01:28;8.50;99.90
44223;DHT22;29895;48.804;9.386;2023-04-25T03:03:53;8.50;99.90
44223;DHT22;29895;48.804;9.386;2023-04-25T03:06:19;8.50;99.90
44223;DHT22;29895;48.804;9.386;2023-04-25T03:08:45;8.50;99.90
44223;DHT22;29895;48.804;9.386;2023-04-25T03:11:10;8.50;99.90
44223;DHT22;29895;48.804;9.386;2023-04-25T03:13:36;8.50;99.90
44223;DHT22;29895;48.804;9.386;2023-04-25T03:16:01;8.60;99.90
44223;DHT22;29895;48.804;9.386;2023-04-25T03:18:27;8.70;99.90
44223;DHT22;29895;48.804;9.386;2023-04-25T03:20:52;8.70;99.90
44223;DHT22;29895;48.804;9.386;2023-04-25T03:23:18;8.70;99.90
44223;DHT22;29895;48.804;9.386;2023-04-25T03:25:43;8.70;99.90
44223;DHT22;29895;48.804;9.386;2023-04-25T03:28:09;8.70;99.90
44223;DHT22;29895;48.804;9.386;2023-04-25T03:30:34;8.70;99.90
44223;DHT22;29895;48.804;9.386;2023-04-25T03:33:00;8.70;99.90
44223;DHT22;29895;48.804;9.386;2023-04-25T03:35:25;8.70;99.90
44223;DHT22;29895;48.804;9.386;2023-04-25T03:37:51;8.70;99.90
44223;DHT22;29895;48.804;9.386;2023-04-25T03:40:16;8.80;99.90
44223;DHT22;29895;48.804;9.386;2023-04-25T03:42:42;8.80;99.90
44223;DHT22;29895;48.804;9.386;2023-04-25T03:45:07;8.80;99.90
44223;DHT22;29895;48.804;9.386;2023-04-25T03:47:33;8.80;99.90
44223;DHT22;29895;48.804;9.386;2023-04-25T03:49:58;8.70;99.90
44223;DHT22;29895;48.804;9.386;2023-04-25T03:52:25;8.70;99.90
44223;DHT22;29895;48.804;9.386;2023-04-25T03:54:51;8.70;99.90
44223;DHT22;29895;48.804;9.386;2023-04-25T03:57:16;8.70;99.90
44223;DHT22;29895;48.804;9.386;2023-04-25T03:59:42;8.70;99.90
44223;DHT22;29895;48.804;9.386;2023-04-25T04:02:07;8.70;99.90
44223;DHT22;29895;48.804;9.386;2023-04-25T04:04:33;8.70;99.90
44223;DHT22;29895;48.804;9.386;2023-04-25T04:06:58;8.60;99.90
44223;DHT22;29895;48.804;9.386;2023-04-25T04:09:24;8.60;99.90
44223;DHT22;29895;48.804;9.386;2023-04-25T04:11:51;8.70;99.90
44223;DHT22;29895;48.804;9.386;2023-04-25T04:14:16;8.60;99.90
44223;DHT22;29895;48.804;9.386;2023-04-25T04:16:42;8.60;99.90
44223;DHT22;29895;48.804;9.386;2023-04-25T04:19:07;8.60;99.90
44223;DHT22;29895;48.804;9.386;2023-04-25T04:21:33;8.60;99.90
44223;DHT22;29895;48.804;9.386;2023-04-25T04:23:58;8.60;99.90
44223;DHT22;29895;48.804;9.386;2023-04-25T04:26:25;8.60;99.90
44223;DHT22;29895;48.804;9.386;2023-04-25T04:28:51;8.60;99.90
44223;DHT22;29895;48.804;9.386;2023-04-25T04:31:17;8.50;99.90
44223;DHT22;29895;48.804;9.386;2023-04-25T04:33:44;8.50;99.90
44223;DHT22;29895;48.804;9.386;2023-04-25T04:36:11;8.50;99.90
44223;DHT22;29895;48.804;9.386;2023-04-25T04:38:36;8.50;99.90
44223;DHT22;29895;48.804;9.386;2023-04-25T04:41:02;8.50;99.90
44223;DHT22;29895;48.804;9.386;2023-04-25T04:43:28;8.60;99.90
44223;DHT22;29895;48.804;9.386;2023-04-25T04:45:55;8.60;99.90
44223;DHT22;29895;48.804;9.386;2023-04-25T04:48:21;8.60;99.90
44223;DHT22;29895;48.804;9.386;2023-04-25T04:50:47;8.70;99.90
44223;DHT22;29895;48.804;9.386;2023-04-25T04:53:13;8.80;99.90
44223;DHT22;29895;48.804;9.386;2023-04-25T04:55:39;8.90;99.90
44223;DHT22;29895;48.804;9.386;2023-04-25T04:58:06;9.00;99.90
44223;DHT22;29895;48.804;9.386;2023-04-25T05:00:32;9.00;99.90
44223;DHT22;29895;48.804;9.386;2023-04-25T05:02:58;9.10;99.90
44223;DHT22;29895;48.804;9.386;2023-04-25T05:05:24;9.10;99.90
44223;DHT22;29895;48.804;9.386;2023-04-25T05:07:50;9.20;99.90
44223;DHT22;29895;48.804;9.386;2023-04-25T05:10:16;9.20;99.90
44223;DHT22;29895;48.804;9.386;2023-04-25T05:12:41;9.20;99.90
44223;DHT22;29895;48.804;9.386;2023-04-25T05:15:07;9.20;99.90
44223;DHT22;29895;48.804;9.386;2023-04-25T05:17:33;9.20;99.90
44223;DHT22;29895;48.804;9.386;2023-04-25T05:19:58;9.20;99.90
44223;DHT22;29895;48.804;9.386;2023-04-25T05:22:24;9.20;99.90
44223;DHT22;29895;48.804;9.386;2023-04-25T05:24:49;9.30;99.90
44223;DHT22;29895;48.804;9.386;2023-04-25T05:27:17;9.40;99.90
44223;DHT22;29895;48.804;9.386;2023-04-25T05:29:43;9.40;99.90
44223;DHT22;29895;48.804;9.386;2023-04-25T05:32:08;9.40;99.90
44223;DHT22;29895;48.804;9.386;2023-04-25T05:34:34;9.40;99.90
44223;DHT22;29895;48.804;9.386;2023-04-25T05:37:00;9.40;99.90
44223;DHT22;29895;48.804;9.386;2023-04-25T05:39:26;9.50;99.90
44223;DHT22;29895;48.804;9.386;2023-04-25T05:41:52;9.70;99.90
44223;DHT22;29895;48.804;9.386;2023-04-25T05:44:17;9.90;99.90
44223;DHT22;29895;48.804;9.386;2023-04-25T05:46:43;10.00;99.90
44223;DHT22;29895;48.804;9.386;2023-04-25T05:49:08;10.20;99.90
44223;DHT22;29895;48.804;9.386;2023-04-25T05:51:34;10.30;99.90
44223;DHT22;29895;48.804;9.386;2023-04-25T05:53:59;10.30;99.90
44223;DHT22;29895;48.804;9.386;2023-04-25T05:56:25;10.40;99.90
44223;DHT22;29895;48.804;9.386;2023-04-25T05:58:50;10.40;99.90
44223;DHT22;29895;48.804;9.386;2023-04-25T06:01:16;10.30;99.90
44223;DHT22;29895;48.804;9.386;2023-04-25T06:03:42;10.30;99.90
44223;DHT22;29895;48.804;9.386;2023-04-25T06:06:08;10.20;99.90
44223;DHT22;29895;48.804;9.386;2023-04-25T06:08:34;10.10;99.90
44223;DHT22;29895;48.804;9.386;2023-04-25T06:11:00;9.80;99.90
44223;DHT22;29895;48.804;9.386;2023-04-25T06:13:25;9.60;99.90
44223;DHT22;29895;48.804;9.386;2023-04-25T06:15:51;9.50;99.90
44223;DHT22;29895;48.804;9.386;2023-04-25T06:18:16;9.30;99.90
44223;DHT22;29895;48.804;9.386;2023-04-25T06:20:42;9.20;99.90
44223;DHT22;29895;48.804;9.386;2023-04-25T06:23:07;9.10;99.90
44223;DHT22;29895;48.804;9.386;2023-04-25T06:27:09;8.90;99.90
44223;DHT22;29895;48.804;9.386;2023-04-25T06:29:35;8.80;99.90
44223;DHT22;29895;48.804;9.386;2023-04-25T06:32:01;9.00;99.90
44223;DHT22;29895;48.804;9.386;2023-04-25T06:34:26;9.10;99.90
44223;DHT22;29895;48.804;9.386;2023-04-25T06:36:52;9.30;99.90
44223;DHT22;29895;48.804;9.386;2023-04-25T06:39:17;9.50;99.90
44223;DHT22;29895;48.804;9.386;2023-04-25T06:41:45;9.70;99.90
44223;DHT22;29895;48.804;9.386;2023-04-25T06:44:10;9.90;99.90
44223;DHT22;29895;48.804;9.386;2023-04-25T06:46:36;10.10;99.90
44223;DHT22;29895;48.804;9.386;2023-04-25T06:49:03;10.30;99.90
44223;DHT22;29895;48.804;9.386;2023-04-25T06:51:28;10.60;99.90
44223;DHT22;29895;48.804;9.386;2023-04-25T06:53:55;10.70;99.90
44223;DHT22;29895;48.804;9.386;2023-04-25T06:56:21;10.90;99.90
44223;DHT22;29895;48.804;9.386;2023-04-25T06:58:47;11.20;99.90
44223;DHT22;29895;48.804;9.386;2023-04-25T07:01:12;11.40;99.90
44223;DHT22;29895;48.804;9.386;2023-04-25T07:03:38;11.60;99.90
44223;DHT22;29895;48.804;9.386;2023-04-25T07:06:04;11.70;99.90
44223;DHT22;29895;48.804;9.386;2023-04-25T07:08:29;11.60;99.90
44223;DHT22;29895;48.804;9.386;2023-04-25T07:10:55;11.60;99.90
44223;DHT22;29895;48.804;9.386;2023-04-25T07:13:21;11.60;99.90
44223;DHT22;29895;48.804;9.386;2023-04-25T07:15:46;11.60;99.90
44223;DHT22;29895;48.804;9.386;2023-04-25T07:18:13;11.50;99.90
44223;DHT22;29895;48.804;9.386;2023-04-25T07:20:39;11.40;99.90
44223;DHT22;29895;48.804;9.386;2023-04-25T07:23:05;11.40;99.90
44223;DHT22;29895;48.804;9.386;2023-04-25T07:25:31;11.30;99.90
44223;DHT22;29895;48.804;9.386;2023-04-25T07:27:56;11.40;99.90
44223;DHT22;29895;48.804;9.386;2023-04-25T07:30:22;11.30;99.90
44223;DHT22;29895;48.804;9.386;2023-04-25T07:32:49;11.20;99.90
44223;DHT22;29895;48.804;9.386;2023-04-25T07:35:16;11.20;99.90
44223;DHT22;29895;48.804;9.386;2023-04-25T07:37:42;11.20;99.90
44223;DHT22;29895;48.804;9.386;2023-04-25T07:40:09;11.00;99.90
44223;DHT22;29895;48.804;9.386;2023-04-25T07:42:35;11.00;99.90
44223;DHT22;29895;48.804;9.386;2023-04-25T07:45:01;10.80;99.90
44223;DHT22;29895;48.804;9.386;2023-04-25T07:47:27;10.60;99.90
44223;DHT22;29895;48.804;9.386;2023-04-25T07:49:52;10.50;99.90
44223;DHT22;29895;48.804;9.386;2023-04-25T07:52:18;10.50;99.90
44223;DHT22;29895;48.804;9.386;2023-04-25T07:54:44;10.40;99.90
44223;DHT22;29895;48.804;9.386;2023-04-25T07:57:10;10.20;99.90
44223;DHT22;29895;48.804;9.386;2023-04-25T07:59:36;10.00;99.90
44223;DHT22;29895;48.804;9.386;2023-04-25T08:02:02;10.00;99.90
44223;DHT22;29895;48.804;9.386;2023-04-25T08:04:28;9.90;99.90
44223;DHT22;29895;48.804;9.386;2023-04-25T08:06:54;9.90;99.90
44223;DHT22;29895;48.804;9.386;2023-04-25T08:09:20;9.90;99.90
44223;DHT22;29895;48.804;9.386;2023-04-25T08:11:46;9.80;99.90
44223;DHT22;29895;48.804;9.386;2023-04-25T08:14:12;9.80;99.90
44223;DHT22;29895;48.804;9.386;2023-04-25T08:16:38;9.80;99.90
44223;DHT22;29895;48.804;9.386;2023-04-25T08:19:04;9.90;99.90
44223;DHT22;29895;48.804;9.386;2023-04-25T08:21:30;9.90;99.90
44223;DHT22;29895;48.804;9.386;2023-04-25T08:23:57;9.90;99.90
44223;DHT22;29895;48.804;9.386;2023-04-25T08:26:24;9.80;99.90
44223;DHT22;29895;48.804;9.386;2023-04-25T08:28:50;9.70;99.90
44223;DHT22;29895;48.804;9.386;2023-04-25T08:31:16;9.60;99.90
44223;DHT22;29895;48.804;9.386;2023-04-25T08:33:42;9.40;99.90
44223;DHT22;29895;48.804;9.386;2023-04-25T08:36:08;9.30;99.90
44223;DHT22;29895;48.804;9.386;2023-04-25T08:38:33;9.20;99.90
44223;DHT22;29895;48.804;9.386;2023-04-25T08:41:00;9.30;99.90
44223;DHT22;29895;48.804;9.386;2023-04-25T08:43:29;9.20;99.90
44223;DHT22;29895;48.804;9.386;2023-04-25T08:45:59;9.20;99.90
44223;DHT22;29895;48.804;9.386;2023-04-25T08:48:27;9.30;99.90
44223;DHT22;29895;48.804;9.386;2023-04-25T08:50:56;9.20;99.90
44223;DHT22;29895;48.804;9.386;2023-04-25T08:53:28;9.20;99.90
44223;DHT22;29895;48.804;9.386;2023-04-25T08:55:56;9.20;99.90
44223;DHT22;29895;48.804;9.386;2023-04-25T08:58:23;9.10;99.90
44223;DHT22;29895;48.804;9.386;2023-04-25T09:00:50;9.10;99.90
44223;DHT22;29895;48.804;9.386;2023-04-25T09:03:19;9.10;99.90
44223;DHT22;29895;48.804;9.386;2023-04-25T09:05:45;9.10;99.90
44223;DHT22;29895;48.804;9.386;2023-04-25T09:08:11;9.10;99.90
44223;DHT22;29895;48.804;9.386;2023-04-25T09:10:37;9.20;99.90
44223;DHT22;29895;48.804;9.386;2023-04-25T09:15:29;9.30;99.90
44223;DHT22;29895;48.804;9.386;2023-04-25T09:17:59;9.20;99.90
44223;DHT22;29895;48.804;9.386;2023-04-25T09:20:25;9.20;99.90
44223;DHT22;29895;48.804;9.386;2023-04-25T09:23:05;9.20;99.90
44223;DHT22;29895;48.804;9.386;2023-04-25T09:25:35;9.20;99.90
44223;DHT22;29895;48.804;9.386;2023-04-25T09:28:04;9.20;99.90
44223;DHT22;29895;48.804;9.386;2023-04-25T09:30:32;9.20;99.90
44223;DHT22;29895;48.804;9.386;2023-04-25T09:33:10;9.10;99.90
44223;DHT22;29895;48.804;9.386;2023-04-25T09:35:48;9.00;99.90
44223;DHT22;29895;48.804;9.386;2023-04-25T09:38:20;9.00;99.90
44223;DHT22;29895;48.804;9.386;2023-04-25T09:40:47;8.80;99.90
44223;DHT22;29895;48.804;9.386;2023-04-25T09:43:24;8.80;99.90
44223;DHT22;29895;48.804;9.386;2023-04-25T09:45:52;8.80;99.90
44223;DHT22;29895;48.804;9.386;2023-04-25T09:48:20;8.80;99.90
44223;DHT22;29895;48.804;9.386;2023-04-25T09:51:10;8.80;99.90
44223;DHT22;29895;48.804;9.386;2023-04-25T09:53:41;8.80;99.90
44223;DHT22;29895;48.804;9.386;2023-04-25T09:56:09;8.90;99.90
44223;DHT22;29895;48.804;9.386;2023-04-25T09:58:36;8.90;99.90
44223;DHT22;29895;48.804;9.386;2023-04-25T10:01:04;8.90;99.90
44223;DHT22;29895;48.804;9.386;2023-04-25T10:03:32;8.90;99.90
44223;DHT22;29895;48.804;9.386;2023-04-25T10:06:03;8.90;99.90
44223;DHT22;29895;48.804;9.386;2023-04-25T10:08:38;8.90;99.90
44223;DHT22;29895;48.804;9.386;2023-04-25T10:11:07;8.90;99.90
44223;DHT22;29895;48.804;9.386;2023-04-25T10:13:34;8.80;99.90
44223;DHT22;29895;48.804;9.386;2023-04-25T10:16:02;8.80;99.90
44223;DHT22;29895;48.804;9.386;2023-04-25T10:18:32;8.80;99.90
44223;DHT22;29895;48.804;9.386;2023-04-25T10:21:00;8.70;99.90
44223;DHT22;29895;48.804;9.386;2023-04-25T10:23:26;8.70;99.90
44223;DHT22;29895;48.804;9.386;2023-04-25T10:25:52;8.70;99.90
44223;DHT22;29895;48.804;9.386;2023-04-25T10:28:19;8.70;99.90
44223;DHT22;29895;48.804;9.386;2023-04-25T10:31:02;8.60;99.90
44223;DHT22;29895;48.804;9.386;2023-04-25T10:33:34;8.60;99.90
44223;DHT22;29895;48.804;9.386;2023-04-25T10:38:42;8.60;99.90
44223;DHT22;29895;48.804;9.386;2023-04-25T10:41:09;8.60;99.90
44223;DHT22;29895;48.804;9.386;2023-04-25T10:43:39;8.50;99.90
44223;DHT22;29895;48.804;9.386;2023-04-25T10:46:16;8.40;99.90
44223;DHT22;29895;48.804;9.386;2023-04-25T10:48:56;8.40;99.90
44223;DHT22;29895;48.804;9.386;2023-04-25T10:51:27;8.40;99.90
44223;DHT22;29895;48.804;9.386;2023-04-25T10:56:28;8.20;99.90
44223;DHT22;29895;48.804;9.386;2023-04-25T11:01:45;8.10;99.90
44223;DHT22;29895;48.804;9.386;2023-04-25T11:04:31;7.90;99.90
44223;DHT22;29895;48.804;9.386;2023-04-25T11:09:24;7.70;99.90
44223;DHT22;29895;48.804;9.386;2023-04-25T11:11:57;7.70;99.90
44223;DHT22;29895;48.804;9.386;2023-04-25T11:14:24;7.60;99.90
44223;DHT22;29895;48.804;9.386;2023-04-25T11:16:57;7.70;99.90
44223;DHT22;29895;48.804;9.386;2023-04-25T11:19:25;7.70;99.90
44223;DHT22;29895;48.804;9.386;2023-04-25T11:21:50;7.70;99.90
44223;DHT22;29895;48.804;9.386;2023-04-25T11:24:19;7.50;99.90
44223;DHT22;29895;48.804;9.386;2023-04-25T11:26:50;7.40;99.90
44223;DHT22;29895;48.804;9.386;2023-04-25T11:29:16;7.30;99.90
44223;DHT22;29895;48.804;9.386;2023-04-25T11:31:44;7.20;99.90
44223;DHT22;29895;48.804;9.386;2023-04-25T11:34:17;7.40;99.90
44223;DHT22;29895;48.804;9.386;2023-04-25T11:36:45;7.50;99.90
44223;DHT22;29895;48.804;9.386;2023-04-25T11:39:11;7.70;99.90
44223;DHT22;29895;48.804;9.386;2023-04-25T11:41:41;7.70;99.90
44223;DHT22;29895;48.804;9.386;2023-04-25T11:44:07;7.90;99.90
44223;DHT22;29895;48.804;9.386;2023-04-25T11:46:35;8.10;99.90
44223;DHT22;29895;48.804;9.386;2023-04-25T11:49:01;8.40;99.90
44223;DHT22;29895;48.804;9.386;2023-04-25T11:51:27;8.70;99.90
44223;DHT22;29895;48.804;9.386;2023-04-25T11:53:52;9.10;99.90
44223;DHT22;29895;48.804;9.386;2023-04-25T11:56:18;9.50;99.90
44223;DHT22;29895;48.804;9.386;2023-04-25T11:59:05;9.70;99.90
44223;DHT22;29895;48.804;9.386;2023-04-25T12:01:32;10.00;99.90
44223;DHT22;29895;48.804;9.386;2023-04-25T12:04:09;10.40;99.90
44223;DHT22;29895;48.804;9.386;2023-04-25T12:06:37;10.60;99.90
44223;DHT22;29895;48.804;9.386;2023-04-25T12:09:07;10.70;99.90
44223;DHT22;29895;48.804;9.386;2023-04-25T12:11:44;10.50;99.90
44223;DHT22;29895;48.804;9.386;2023-04-25T12:14:27;10.40;99.90
44223;DHT22;29895;48.804;9.386;2023-04-25T12:16:56;10.60;99.90
44223;DHT22;29895;48.804;9.386;2023-04-25T12:19:23;10.80;99.90
44223;DHT22;29895;48.804;9.386;2023-04-25T12:21:49;10.80;99.90
44223;DHT22;29895;48.804;9.386;2023-04-25T12:24:16;10.90;99.90
44223;DHT22;29895;48.804;9.386;2023-04-25T12:29:21;10.90;99.90
44223;DHT22;29895;48.804;9.386;2023-04-25T12:31:48;10.80;99.90
44223;DHT22;29895;48.804;9.386;2023-04-25T12:34:14;10.70;99.90
44223;DHT22;29895;48.804;9.386;2023-04-25T12:36:40;10.60;99.90
44223;DHT22;29895;48.804;9.386;2023-04-25T12:39:06;10.40;99.90
44223;DHT22;29895;48.804;9.386;2023-04-25T12:41:32;10.10;99.90
44223;DHT22;29895;48.804;9.386;2023-04-25T12:43:58;10.00;99.90
44223;DHT22;29895;48.804;9.386;2023-04-25T12:46:24;9.90;99.90
44223;DHT22;29895;48.804;9.386;2023-04-25T12:48:49;10.00;99.90
44223;DHT22;29895;48.804;9.386;2023-04-25T12:51:15;10.10;99.90
44223;DHT22;29895;48.804;9.386;2023-04-25T12:53:41;10.20;99.90
44223;DHT22;29895;48.804;9.386;2023-04-25T12:56:07;10.30;99.90
44223;DHT22;29895;48.804;9.386;2023-04-25T12:58:33;10.50;99.90
44223;DHT22;29895;48.804;9.386;2023-04-25T13:00:59;10.60;99.90
44223;DHT22;29895;48.804;9.386;2023-04-25T13:03:25;10.80;99.90
44223;DHT22;29895;48.804;9.386;2023-04-25T13:05:51;11.00;99.90
44223;DHT22;29895;48.804;9.386;2023-04-25T13:08:21;11.20;99.90
44223;DHT22;29895;48.804;9.386;2023-04-25T13:10:47;11.50;99.90
44223;DHT22;29895;48.804;9.386;2023-04-25T13:13:13;11.80;99.90
44223;DHT22;29895;48.804;9.386;2023-04-25T13:15:39;12.00;99.90
44223;DHT22;29895;48.804;9.386;2023-04-25T13:18:05;12.40;99.90
44223;DHT22;29895;48.804;9.386;2023-04-25T13:20:33;12.70;99.90
44223;DHT22;29895;48.804;9.386;2023-04-25T13:22:59;12.70;99.90
44223;DHT22;29895;48.804;9.386;2023-04-25T13:25:25;12.90;99.90
44223;DHT22;29895;48.804;9.386;2023-04-25T13:27:51;13.30;99.90
44223;DHT22;29895;48.804;9.386;2023-04-25T13:30:17;13.10;99.90
44223;DHT22;29895;48.804;9.386;2023-04-25T13:32:45;12.50;99.90
44223;DHT22;29895;48.804;9.386;2023-04-25T13:35:12;12.00;99.90
44223;DHT22;29895;48.804;9.386;2023-04-25T13:37:39;11.70;99.90
44223;DHT22;29895;48.804;9.386;2023-04-25T13:40:10;11.70;99.90
44223;DHT22;29895;48.804;9.386;2023-04-25T13:42:37;11.60;99.90
44223;DHT22;29895;48.804;9.386;2023-04-25T13:45:03;11.70;99.90
44223;DHT22;29895;48.804;9.386;2023-04-25T13:47:29;11.90;99.90
44223;DHT22;29895;48.804;9.386;2023-04-25T13:49:56;12.20;99.90
44223;DHT22;29895;48.804;9.386;2023-04-25T13:52:22;12.30;99.90
44223;DHT22;29895;48.804;9.386;2023-04-25T13:54:52;12.40;99.90
44223;DHT22;29895;48.804;9.386;2023-04-25T13:57:21;12.60;99.90
44223;DHT22;29895;48.804;9.386;2023-04-25T13:59:46;12.40;99.90
44223;DHT22;29895;48.804;9.386;2023-04-25T14:02:12;12.20;99.90
44223;DHT22;29895;48.804;9.386;2023-04-25T14:04:38;12.00;99.90
44223;DHT22;29895;48.804;9.386;2023-04-25T14:07:03;11.90;99.90
44223;DHT22;29895;48.804;9.386;2023-04-25T14:09:30;11.90;99.90
44223;DHT22;29895;48.804;9.386;2023-04-25T14:11:56;11.80;99.90
44223;DHT22;29895;48.804;9.386;2023-04-25T14:14:22;11.80;99.90
44223;DHT22;29895;48.804;9.386;2023-04-25T14:16:51;12.10;99.90
44223;DHT22;29895;48.804;9.386;2023-04-25T14:19:19;12.40;99.90
44223;DHT22;29895;48.804;9.386;2023-04-25T14:21:45;12.90;99.90
44223;DHT22;29895;48.804;9.386;2023-04-25T14:24:13;12.70;99.90
44223;DHT22;29895;48.804;9.386;2023-04-25T14:26:39;12.50;99.90
44223;DHT22;29895;48.804;9.386;2023-04-25T14:29:06;12.40;99.90
44223;DHT22;29895;48.804;9.386;2023-04-25T14:31:33;12.50;99.90
44223;DHT22;29895;48.804;9.386;2023-04-25T14:33:59;12.80;99.90
44223;DHT22;29895;48.804;9.386;2023-04-25T14:36:28;13.10;99.90
44223;DHT22;29895;48.804;9.386;2023-04-25T14:38:54;13.20;99.90
44223;DHT22;29895;48.804;9.386;2023-04-25T14:41:19;13.20;99.90
44223;DHT22;29895;48.804;9.386;2023-04-25T14:43:45;13.10;99.90
44223;DHT22;29895;48.804;9.386;2023-04-25T14:46:11;12.90;99.90
44223;DHT22;29895;48.804;9.386;2023-04-25T14:48:37;13.10;99.90
44223;DHT22;29895;48.804;9.386;2023-04-25T14:51:03;13.00;99.90
44223;DHT22;29895;48.804;9.386;2023-04-25T14:53:29;13.20;99.90
44223;DHT22;29895;48.804;9.386;2023-04-25T14:55:54;13.10;99.90
44223;DHT22;29895;48.804;9.386;2023-04-25T14:58:20;12.90;99.90
44223;DHT22;29895;48.804;9.386;2023-04-25T15:00:46;12.50;99.90
44223;DHT22;29895;48.804;9.386;2023-04-25T15:03:12;12.30;99.90
44223;DHT22;29895;48.804;9.386;2023-04-25T15:05:41;12.40;99.90
44223;DHT22;29895;48.804;9.386;2023-04-25T15:08:07;12.60;99.90
44223;DHT22;29895;48.804;9.386;2023-04-25T15:10:32;12.60;99.90
44223;DHT22;29895;48.804;9.386;2023-04-25T15:12:58;12.50;99.90
44223;DHT22;29895;48.804;9.386;2023-04-25T15:15:24;12.40;99.90
44223;DHT22;29895;48.804;9.386;2023-04-25T15:17:50;12.30;99.90
44223;DHT22;29895;48.804;9.386;2023-04-25T15:20:16;12.20;99.90
44223;DHT22;29895;48.804;9.386;2023-04-25T15:22:43;12.30;99.90
44223;DHT22;29895;48.804;9.386;2023-04-25T15:25:10;12.40;99.90
44223;DHT22;29895;48.804;9.386;2023-04-25T15:27:39;12.50;99.90
44223;DHT22;29895;48.804;9.386;2023-04-25T15:30:10;12.60;99.90
44223;DHT22;29895;48.804;9.386;2023-04-25T15:32:38;12.50;99.90
44223;DHT22;29895;48.804;9.386;2023-04-25T15:35:05;12.40;99.90
44223;DHT22;29895;48.804;9.386;2023-04-25T15:37:32;12.20;99.90
44223;DHT22;29895;48.804;9.386;2023-04-25T15:42:26;12.20;99.90
44223;DHT22;29895;48.804;9.386;2023-04-25T15:44:52;12.30;99.90
44223;DHT22;29895;48.804;9.386;2023-04-25T15:47:17;12.40;99.90
44223;DHT22;29895;48.804;9.386;2023-04-25T15:49:43;12.50;99.90
44223;DHT22;29895;48.804;9.386;2023-04-25T15:52:09;12.50;99.90
44223;DHT22;29895;48.804;9.386;2023-04-25T15:54:34;12.40;99.90
44223;DHT22;29895;48.804;9.386;2023-04-25T15:57:03;12.30;99.90